Main page
METAR-TAF:

METAR-TAF

Airports :

Esbjerg Airport

Esbjerg, Denmark

latitude: 55-32N, longitude: 008-34E, elevation: 30 m

Current weather observation

The report was made 21 minutes ago, at 12:50 UTC
Wind 14 kt from the West
Temperature 7°C
Humidity 76%
Pressure 1008 hPa
Visibility 10 km or more

METAR: EKEB 281250Z AUTO 26014KT 9999 SCT020/// BKN036/// 07/03 Q1008

Time: 14:11 (13:11 UTC)

Forecast

The report was made 1 hour and 50 minutes ago, at 11:21 UTC
Forecast valid from 28 at 12 UTC to 28 at 21 UTC
Wind 15 kt from the West
Visibility 10 km or more
Scattered clouds at a height of 2500 ft
Becoming
from 28 at 16 UTC to 28 at 19 UTC
Wind 10 kt from the South

TAF: EKEB 281121Z 2812/2821 26015KT 9999 SCT025 BECMG 2816/2819 17010KT

Weather observations and forecasts of more than 4000 airports (METAR and TAF reports).

The available stations are represented by yellow and red dots on the map.

Hover mouse over dot to see the name of the station.

Then click to see weather observations and forecasts.

To change the map : click on the green buttons with a black cross to zoom in, on the green button with a dash to zoom out, or on the green arrows for adjacent maps.


METAR-TAF: